sensor_id;sensor_type;location;lat;lon;timestamp;pressure;altitude;pressure_sealevel;temperature;humidity
49915;BME280;35806;47.958;13.158;2022-09-01T00:01:00;94937.64;;;14.92;60.85
49915;BME280;35806;47.958;13.158;2022-09-01T00:03:28;94938.46;;;15.32;60.13
49915;BME280;35806;47.958;13.158;2022-09-01T00:05:55;94931.68;;;14.82;60.92
49915;BME280;35806;47.958;13.158;2022-09-01T00:08:23;94930.22;;;15.09;61.22
49915;BME280;35806;47.958;13.158;2022-09-01T00:10:50;94925.00;;;14.57;61.27
49915;BME280;35806;47.958;13.158;2022-09-01T00:13:17;94924.05;;;14.73;61.14
49915;BME280;35806;47.958;13.158;2022-09-01T00:15:44;94922.38;;;15.03;61.00
49915;BME280;35806;47.958;13.158;2022-09-01T00:18:11;94925.70;;;14.95;61.41
49915;BME280;35806;47.958;13.158;2022-09-01T00:20:38;94919.66;;;15.20;60.56
49915;BME280;35806;47.958;13.158;2022-09-01T00:23:05;94920.49;;;15.23;60.38
49915;BME280;35806;47.958;13.158;2022-09-01T00:25:33;94921.08;;;14.98;61.13
49915;BME280;35806;47.958;13.158;2022-09-01T00:28:00;94921.46;;;14.58;61.30
49915;BME280;35806;47.958;13.158;2022-09-01T00:30:28;94922.92;;;14.80;61.14
49915;BME280;35806;47.958;13.158;2022-09-01T00:32:55;94924.77;;;14.96;60.75
49915;BME280;35806;47.958;13.158;2022-09-01T00:35:23;94931.24;;;15.29;60.49
49915;BME280;35806;47.958;13.158;2022-09-01T00:37:50;94930.77;;;15.39;60.13
49915;BME280;35806;47.958;13.158;2022-09-01T00:40:18;94927.23;;;14.99;60.95
49915;BME280;35806;47.958;13.158;2022-09-01T00:42:46;94925.66;;;15.09;60.18
49915;BME280;35806;47.958;13.158;2022-09-01T00:45:13;94924.65;;;14.99;60.79
49915;BME280;35806;47.958;13.158;2022-09-01T00:47:41;94924.04;;;14.88;60.86
49915;BME280;35806;47.958;13.158;2022-09-01T00:50:10;94924.65;;;15.13;60.67
49915;BME280;35806;47.958;13.158;2022-09-01T00:52:40;94922.70;;;15.65;60.31
49915;BME280;35806;47.958;13.158;2022-09-01T00:55:12;94926.77;;;15.48;59.58
49915;BME280;35806;47.958;13.158;2022-09-01T00:57:40;94925.71;;;15.55;59.62
49915;BME280;35806;47.958;13.158;2022-09-01T01:15:57;94918.33;;;16.13;59.70
49915;BME280;35806;47.958;13.158;2022-09-01T01:18:24;94916.17;;;15.87;59.21
49915;BME280;35806;47.958;13.158;2022-09-01T01:20:57;94915.32;;;15.79;58.81
49915;BME280;35806;47.958;13.158;2022-09-01T01:23:32;94914.22;;;15.76;58.27
49915;BME280;35806;47.958;13.158;2022-09-01T01:26:03;94911.89;;;15.72;58.82
49915;BME280;35806;47.958;13.158;2022-09-01T01:28:33;94908.83;;;15.87;58.72
49915;BME280;35806;47.958;13.158;2022-09-01T01:31:03;94908.03;;;15.54;59.22
49915;BME280;35806;47.958;13.158;2022-09-01T01:33:33;94907.82;;;15.73;58.22
49915;BME280;35806;47.958;13.158;2022-09-01T01:36:01;94908.05;;;15.65;58.98
49915;BME280;35806;47.958;13.158;2022-09-01T01:38:28;94906.25;;;15.47;59.62
49915;BME280;35806;47.958;13.158;2022-09-01T01:40:56;94909.41;;;15.72;58.97
49915;BME280;35806;47.958;13.158;2022-09-01T01:43:24;94909.70;;;15.50;58.71
49915;BME280;35806;47.958;13.158;2022-09-01T01:45:54;94907.95;;;14.89;59.38
49915;BME280;35806;47.958;13.158;2022-09-01T01:48:22;94908.57;;;15.14;59.12
49915;BME280;35806;47.958;13.158;2022-09-01T01:50:50;94905.03;;;15.21;59.46
49915;BME280;35806;47.958;13.158;2022-09-01T01:53:18;94906.39;;;14.78;60.44
49915;BME280;35806;47.958;13.158;2022-09-01T01:55:47;94905.68;;;15.32;60.08
49915;BME280;35806;47.958;13.158;2022-09-01T01:58:14;94903.22;;;14.91;60.41
49915;BME280;35806;47.958;13.158;2022-09-01T02:00:42;94904.70;;;14.98;60.36
49915;BME280;35806;47.958;13.158;2022-09-01T02:03:10;94899.94;;;14.73;60.35
49915;BME280;35806;47.958;13.158;2022-09-01T02:05:38;94897.74;;;14.86;60.53
49915;BME280;35806;47.958;13.158;2022-09-01T02:08:08;94897.69;;;15.09;60.14
49915;BME280;35806;47.958;13.158;2022-09-01T02:10:39;94897.60;;;15.23;59.76
49915;BME280;35806;47.958;13.158;2022-09-01T02:13:08;94900.58;;;15.14;60.14
49915;BME280;35806;47.958;13.158;2022-09-01T02:15:38;94900.18;;;15.05;60.48
49915;BME280;35806;47.958;13.158;2022-09-01T02:18:06;94902.10;;;15.35;60.61
49915;BME280;35806;47.958;13.158;2022-09-01T02:20:33;94907.08;;;14.99;60.52
49915;BME280;35806;47.958;13.158;2022-09-01T02:23:00;94906.99;;;15.29;59.06
49915;BME280;35806;47.958;13.158;2022-09-01T02:25:28;94908.08;;;15.22;60.01
49915;BME280;35806;47.958;13.158;2022-09-01T02:27:55;94906.25;;;14.90;60.40
49915;BME280;35806;47.958;13.158;2022-09-01T02:30:23;94904.93;;;15.05;60.40
49915;BME280;35806;47.958;13.158;2022-09-01T02:32:50;94906.97;;;15.14;59.90
49915;BME280;35806;47.958;13.158;2022-09-01T02:35:18;94906.14;;;14.90;60.35
49915;BME280;35806;47.958;13.158;2022-09-01T02:37:45;94907.56;;;14.78;60.32
49915;BME280;35806;47.958;13.158;2022-09-01T02:40:12;94909.86;;;14.47;61.22
49915;BME280;35806;47.958;13.158;2022-09-01T02:42:39;94908.86;;;14.24;61.29
49915;BME280;35806;47.958;13.158;2022-09-01T02:45:08;94908.45;;;14.20;61.41
49915;BME280;35806;47.958;13.158;2022-09-01T02:47:35;94910.93;;;14.27;61.49
49915;BME280;35806;47.958;13.158;2022-09-01T02:50:03;94909.88;;;14.38;61.15
49915;BME280;35806;47.958;13.158;2022-09-01T02:52:31;94906.14;;;13.87;62.04
49915;BME280;35806;47.958;13.158;2022-09-01T02:54:58;94908.32;;;14.42;61.68
49915;BME280;35806;47.958;13.158;2022-09-01T02:57:26;94899.90;;;14.21;62.02
49915;BME280;35806;47.958;13.158;2022-09-01T02:59:53;94898.64;;;14.10;61.74
49915;BME280;35806;47.958;13.158;2022-09-01T03:02:21;94898.62;;;13.98;61.99
49915;BME280;35806;47.958;13.158;2022-09-01T03:04:54;94896.79;;;14.08;62.29
49915;BME280;35806;47.958;13.158;2022-09-01T03:07:21;94899.70;;;14.30;62.09
49915;BME280;35806;47.958;13.158;2022-09-01T03:09:49;94902.95;;;14.55;61.88
49915;BME280;35806;47.958;13.158;2022-09-01T03:12:16;94902.20;;;14.67;61.99
49915;BME280;35806;47.958;13.158;2022-09-01T03:14:44;94899.44;;;14.93;61.51
49915;BME280;35806;47.958;13.158;2022-09-01T03:17:11;94898.32;;;14.83;61.43
49915;BME280;35806;47.958;13.158;2022-09-01T03:19:38;94899.68;;;14.38;61.43
49915;BME280;35806;47.958;13.158;2022-09-01T03:22:05;94897.19;;;14.95;60.15
49915;BME280;35806;47.958;13.158;2022-09-01T03:24:32;94896.90;;;14.86;60.79
49915;BME280;35806;47.958;13.158;2022-09-01T03:27:00;94894.46;;;14.54;61.13
49915;BME280;35806;47.958;13.158;2022-09-01T03:29:27;94893.33;;;15.03;60.60
49915;BME280;35806;47.958;13.158;2022-09-01T03:31:55;94891.47;;;14.59;61.55
49915;BME280;35806;47.958;13.158;2022-09-01T03:34:22;94893.64;;;14.91;61.09
49915;BME280;35806;47.958;13.158;2022-09-01T03:36:50;94896.24;;;14.90;61.09
49915;BME280;35806;47.958;13.158;2022-09-01T03:39:17;94894.08;;;14.90;60.43
49915;BME280;35806;47.958;13.158;2022-09-01T03:41:45;94892.02;;;15.18;60.01
49915;BME280;35806;47.958;13.158;2022-09-01T03:44:12;94891.46;;;14.41;61.93
49915;BME280;35806;47.958;13.158;2022-09-01T03:46:39;94889.97;;;14.88;61.24
49915;BME280;35806;47.958;13.158;2022-09-01T03:49:07;94889.45;;;14.94;61.16
49915;BME280;35806;47.958;13.158;2022-09-01T03:51:34;94892.94;;;14.12;61.73
49915;BME280;35806;47.958;13.158;2022-09-01T03:54:01;94892.52;;;14.15;61.71
49915;BME280;35806;47.958;13.158;2022-09-01T03:56:29;94893.98;;;14.84;60.58
49915;BME280;35806;47.958;13.158;2022-09-01T03:58:58;94890.68;;;14.40;61.07
49915;BME280;35806;47.958;13.158;2022-09-01T04:01:36;94889.58;;;14.79;60.89
49915;BME280;35806;47.958;13.158;2022-09-01T04:04:03;94888.17;;;14.75;61.35
49915;BME280;35806;47.958;13.158;2022-09-01T04:06:30;94888.22;;;15.50;59.30
49915;BME280;35806;47.958;13.158;2022-09-01T04:08:57;94886.71;;;15.06;60.42
49915;BME280;35806;47.958;13.158;2022-09-01T04:11:25;94881.75;;;14.67;60.63
49915;BME280;35806;47.958;13.158;2022-09-01T04:13:52;94879.19;;;14.62;60.20
49915;BME280;35806;47.958;13.158;2022-09-01T04:16:22;94879.25;;;14.87;60.28
49915;BME280;35806;47.958;13.158;2022-09-01T04:18:49;94876.01;;;14.66;60.65
49915;BME280;35806;47.958;13.158;2022-09-01T04:21:17;94878.39;;;14.58;60.97
49915;BME280;35806;47.958;13.158;2022-09-01T04:23:44;94876.64;;;14.31;61.13
49915;BME280;35806;47.958;13.158;2022-09-01T04:26:13;94877.15;;;14.26;60.78
49915;BME280;35806;47.958;13.158;2022-09-01T04:28:41;94876.25;;;14.75;59.37
49915;BME280;35806;47.958;13.158;2022-09-01T04:31:11;94876.29;;;14.43;60.69
49915;BME280;35806;47.958;13.158;2022-09-01T04:33:38;94876.05;;;15.26;59.79
49915;BME280;35806;47.958;13.158;2022-09-01T04:36:14;94875.75;;;14.51;60.67
49915;BME280;35806;47.958;13.158;2022-09-01T04:38:48;94872.18;;;15.12;60.25
49915;BME280;35806;47.958;13.158;2022-09-01T04:41:15;94870.73;;;14.95;59.27
49915;BME280;35806;47.958;13.158;2022-09-01T04:43:43;94869.02;;;14.48;60.66
49915;BME280;35806;47.958;13.158;2022-09-01T04:46:10;94870.44;;;15.00;59.94
49915;BME280;35806;47.958;13.158;2022-09-01T04:48:37;94875.63;;;14.51;60.26
49915;BME280;35806;47.958;13.158;2022-09-01T04:51:06;94876.36;;;14.30;60.85
49915;BME280;35806;47.958;13.158;2022-09-01T04:53:33;94879.18;;;14.49;60.99
49915;BME280;35806;47.958;13.158;2022-09-01T04:56:02;94884.50;;;13.93;62.11
49915;BME280;35806;47.958;13.158;2022-09-01T04:58:30;94881.55;;;14.15;62.44
49915;BME280;35806;47.958;13.158;2022-09-01T05:00:57;94881.47;;;14.06;62.24
49915;BME280;35806;47.958;13.158;2022-09-01T05:03:25;94880.17;;;13.93;62.46
49915;BME280;35806;47.958;13.158;2022-09-01T05:05:52;94882.62;;;13.96;62.12
49915;BME280;35806;47.958;13.158;2022-09-01T05:08:21;94882.33;;;14.28;61.64
49915;BME280;35806;47.958;13.158;2022-09-01T05:10:50;94886.79;;;14.02;62.54
49915;BME280;35806;47.958;13.158;2022-09-01T05:13:18;94883.51;;;14.54;60.94
49915;BME280;35806;47.958;13.158;2022-09-01T05:15:46;94886.20;;;14.54;61.25
49915;BME280;35806;47.958;13.158;2022-09-01T05:18:14;94885.35;;;14.35;60.99
49915;BME280;35806;47.958;13.158;2022-09-01T05:20:42;94889.27;;;13.41;62.74
49915;BME280;35806;47.958;13.158;2022-09-01T05:23:11;94888.18;;;14.01;61.95
49915;BME280;35806;47.958;13.158;2022-09-01T05:25:39;94885.34;;;14.59;60.94
49915;BME280;35806;47.958;13.158;2022-09-01T05:28:08;94884.05;;;14.12;62.39
49915;BME280;35806;47.958;13.158;2022-09-01T05:30:36;94881.58;;;14.07;61.64
49915;BME280;35806;47.958;13.158;2022-09-01T05:33:04;94885.40;;;13.92;62.01
49915;BME280;35806;47.958;13.158;2022-09-01T05:35:31;94882.29;;;13.94;62.70
49915;BME280;35806;47.958;13.158;2022-09-01T05:37:58;94881.09;;;13.87;63.69
49915;BME280;35806;47.958;13.158;2022-09-01T05:40:26;94879.68;;;14.25;63.42
49915;BME280;35806;47.958;13.158;2022-09-01T05:42:53;94876.97;;;13.69;63.10
49915;BME280;35806;47.958;13.158;2022-09-01T05:45:21;94878.51;;;13.00;63.99
49915;BME280;35806;47.958;13.158;2022-09-01T05:47:48;94874.16;;;14.39;62.21
49915;BME280;35806;47.958;13.158;2022-09-01T05:50:16;94874.86;;;13.76;63.26
49915;BME280;35806;47.958;13.158;2022-09-01T05:52:43;94877.70;;;14.62;61.55
49915;BME280;35806;47.958;13.158;2022-09-01T05:55:10;94876.27;;;14.66;61.62
49915;BME280;35806;47.958;13.158;2022-09-01T05:57:38;94878.22;;;15.30;60.46
49915;BME280;35806;47.958;13.158;2022-09-01T06:00:08;94877.44;;;15.29;60.42
49915;BME280;35806;47.958;13.158;2022-09-01T06:02:36;94877.50;;;14.75;60.73
49915;BME280;35806;47.958;13.158;2022-09-01T06:05:03;94877.27;;;14.81;60.70
49915;BME280;35806;47.958;13.158;2022-09-01T06:07:31;94875.73;;;15.06;60.53
49915;BME280;35806;47.958;13.158;2022-09-01T06:09:59;94877.74;;;15.10;60.59
49915;BME280;35806;47.958;13.158;2022-09-01T06:12:31;94878.27;;;15.13;60.28
49915;BME280;35806;47.958;13.158;2022-09-01T06:14:59;94882.41;;;15.11;60.29
49915;BME280;35806;47.958;13.158;2022-09-01T06:17:27;94885.19;;;15.22;60.33
49915;BME280;35806;47.958;13.158;2022-09-01T06:19:56;94890.76;;;15.69;57.85
49915;BME280;35806;47.958;13.158;2022-09-01T06:22:26;94892.88;;;15.70;58.54
49915;BME280;35806;47.958;13.158;2022-09-01T06:24:54;94893.29;;;16.02;56.79
49915;BME280;35806;47.958;13.158;2022-09-01T06:27:21;94898.45;;;15.47;58.33
49915;BME280;35806;47.958;13.158;2022-09-01T06:29:49;94899.48;;;15.38;58.30
49915;BME280;35806;47.958;13.158;2022-09-01T06:32:16;94902.03;;;15.52;58.78
49915;BME280;35806;47.958;13.158;2022-09-01T06:34:44;94903.94;;;15.43;58.83
49915;BME280;35806;47.958;13.158;2022-09-01T06:37:11;94907.64;;;16.05;56.93
49915;BME280;35806;47.958;13.158;2022-09-01T06:39:39;94908.37;;;16.08;57.18
49915;BME280;35806;47.958;13.158;2022-09-01T06:42:06;94908.27;;;15.42;58.05
49915;BME280;35806;47.958;13.158;2022-09-01T06:44:34;94907.51;;;15.64;57.29
49915;BME280;35806;47.958;13.158;2022-09-01T06:47:01;94905.24;;;15.84;57.49
49915;BME280;35806;47.958;13.158;2022-09-01T06:49:28;94904.15;;;15.55;58.11
49915;BME280;35806;47.958;13.158;2022-09-01T06:51:55;94907.38;;;14.99;58.31
49915;BME280;35806;47.958;13.158;2022-09-01T06:54:22;94909.31;;;15.45;57.74
49915;BME280;35806;47.958;13.158;2022-09-01T06:56:50;94908.30;;;15.60;58.02
49915;BME280;35806;47.958;13.158;2022-09-01T06:59:17;94906.48;;;14.66;58.84
49915;BME280;35806;47.958;13.158;2022-09-01T07:01:45;94910.68;;;15.15;59.27
49915;BME280;35806;47.958;13.158;2022-09-01T07:04:32;94905.36;;;15.48;59.28
49915;BME280;35806;47.958;13.158;2022-09-01T07:06:59;94909.93;;;15.59;58.39
49915;BME280;35806;47.958;13.158;2022-09-01T07:09:26;94911.67;;;15.22;58.94
49915;BME280;35806;47.958;13.158;2022-09-01T07:11:53;94909.71;;;15.11;59.19
49915;BME280;35806;47.958;13.158;2022-09-01T07:14:21;94912.31;;;15.80;57.53
49915;BME280;35806;47.958;13.158;2022-09-01T07:16:48;94916.21;;;15.33;59.32
49915;BME280;35806;47.958;13.158;2022-09-01T07:19:16;94917.62;;;15.82;57.66
49915;BME280;35806;47.958;13.158;2022-09-01T07:21:43;94920.69;;;15.87;58.41
49915;BME280;35806;47.958;13.158;2022-09-01T07:24:12;94921.14;;;15.45;57.90
49915;BME280;35806;47.958;13.158;2022-09-01T07:26:40;94922.86;;;15.41;59.10
49915;BME280;35806;47.958;13.158;2022-09-01T07:29:13;94926.50;;;16.10;57.01
49915;BME280;35806;47.958;13.158;2022-09-01T07:31:41;94921.02;;;15.06;60.05
49915;BME280;35806;47.958;13.158;2022-09-01T07:34:11;94925.19;;;15.91;59.16
49915;BME280;35806;47.958;13.158;2022-09-01T07:36:40;94931.24;;;15.98;59.00
49915;BME280;35806;47.958;13.158;2022-09-01T07:39:09;94932.68;;;15.51;58.75
49915;BME280;35806;47.958;13.158;2022-09-01T07:41:36;94934.04;;;15.53;59.01
49915;BME280;35806;47.958;13.158;2022-09-01T07:44:03;94937.51;;;15.92;57.71
49915;BME280;35806;47.958;13.158;2022-09-01T07:46:31;94942.05;;;15.63;58.27
49915;BME280;35806;47.958;13.158;2022-09-01T07:49:00;94943.20;;;16.21;57.11
49915;BME280;35806;47.958;13.158;2022-09-01T07:51:33;94946.45;;;15.83;58.28
49915;BME280;35806;47.958;13.158;2022-09-01T07:54:00;94954.39;;;15.65;58.26
49915;BME280;35806;47.958;13.158;2022-09-01T07:56:28;94959.29;;;16.37;56.16
49915;BME280;35806;47.958;13.158;2022-09-01T07:58:56;94960.94;;;15.86;57.54
49915;BME280;35806;47.958;13.158;2022-09-01T08:01:26;94959.28;;;15.99;55.60
49915;BME280;35806;47.958;13.158;2022-09-01T08:03:55;94958.50;;;16.97;54.73
49915;BME280;35806;47.958;13.158;2022-09-01T08:06:25;94957.68;;;16.33;57.57
49915;BME280;35806;47.958;13.158;2022-09-01T08:08:55;94962.13;;;16.80;55.97
49915;BME280;35806;47.958;13.158;2022-09-01T08:11:25;94962.74;;;17.18;56.71
49915;BME280;35806;47.958;13.158;2022-09-01T08:13:54;94966.03;;;16.97;56.17
49915;BME280;35806;47.958;13.158;2022-09-01T08:16:21;94968.70;;;16.99;55.74
49915;BME280;35806;47.958;13.158;2022-09-01T08:18:54;94968.23;;;16.32;55.83
49915;BME280;35806;47.958;13.158;2022-09-01T08:21:23;94977.26;;;17.04;54.43
49915;BME280;35806;47.958;13.158;2022-09-01T08:23:52;94979.71;;;16.90;55.14
49915;BME280;35806;47.958;13.158;2022-09-01T08:26:21;94979.23;;;16.37;55.30
49915;BME280;35806;47.958;13.158;2022-09-01T08:28:50;94980.80;;;16.07;56.41
49915;BME280;35806;47.958;13.158;2022-09-01T08:31:18;94980.68;;;15.67;57.35
49915;BME280;35806;47.958;13.158;2022-09-01T08:33:47;94983.49;;;16.29;58.21
49915;BME280;35806;47.958;13.158;2022-09-01T08:36:16;94980.14;;;16.55;55.32
49915;BME280;35806;47.958;13.158;2022-09-01T08:38:53;94983.33;;;16.32;55.19
49915;BME280;35806;47.958;13.158;2022-09-01T08:41:31;94983.65;;;16.27;56.73
49915;BME280;35806;47.958;13.158;2022-09-01T08:44:12;94984.83;;;15.81;56.70
49915;BME280;35806;47.958;13.158;2022-09-01T08:46:42;94983.08;;;15.51;56.04
49915;BME280;35806;47.958;13.158;2022-09-01T08:49:14;94988.17;;;16.00;56.73
49915;BME280;35806;47.958;13.158;2022-09-01T08:51:47;94989.06;;;15.52;57.25
49915;BME280;35806;47.958;13.158;2022-09-01T08:54:20;94987.90;;;16.47;57.09
49915;BME280;35806;47.958;13.158;2022-09-01T08:56:51;94986.09;;;16.95;58.00
49915;BME280;35806;47.958;13.158;2022-09-01T08:59:20;94988.21;;;16.79;55.02
49915;BME280;35806;47.958;13.158;2022-09-01T09:01:54;94984.92;;;17.04;54.60
49915;BME280;35806;47.958;13.158;2022-09-01T09:04:38;94987.52;;;16.95;53.80
49915;BME280;35806;47.958;13.158;2022-09-01T09:07:17;94987.54;;;16.37;54.41
49915;BME280;35806;47.958;13.158;2022-09-01T09:09:51;94986.89;;;17.12;53.55
49915;BME280;35806;47.958;13.158;2022-09-01T09:12:48;94983.55;;;17.38;53.56
49915;BME280;35806;47.958;13.158;2022-09-01T09:15:26;94976.77;;;17.75;53.25
49915;BME280;35806;47.958;13.158;2022-09-01T09:17:59;94979.72;;;18.57;50.37
49915;BME280;35806;47.958;13.158;2022-09-01T09:20:33;94977.65;;;19.01;47.91
49915;BME280;35806;47.958;13.158;2022-09-01T09:23:08;94972.92;;;18.19;50.23
49915;BME280;35806;47.958;13.158;2022-09-01T09:25:38;94974.49;;;18.74;51.29
49915;BME280;35806;47.958;13.158;2022-09-01T09:28:05;94978.65;;;18.56;50.54
49915;BME280;35806;47.958;13.158;2022-09-01T09:30:33;94973.63;;;18.21;49.82
49915;BME280;35806;47.958;13.158;2022-09-01T09:33:01;94969.58;;;18.63;47.90
49915;BME280;35806;47.958;13.158;2022-09-01T09:35:32;94970.46;;;18.22;50.20
49915;BME280;35806;47.958;13.158;2022-09-01T09:38:16;94966.57;;;17.73;49.93
49915;BME280;35806;47.958;13.158;2022-09-01T09:40:56;94965.44;;;18.76;51.44
49915;BME280;35806;47.958;13.158;2022-09-01T09:43:25;94965.84;;;19.05;49.13
49915;BME280;35806;47.958;13.158;2022-09-01T09:46:19;94964.45;;;19.76;47.68
49915;BME280;35806;47.958;13.158;2022-09-01T09:48:47;94961.74;;;20.30;47.81
49915;BME280;35806;47.958;13.158;2022-09-01T09:51:19;94960.16;;;19.69;46.75
49915;BME280;35806;47.958;13.158;2022-09-01T09:53:46;94962.05;;;18.95;46.29
49915;BME280;35806;47.958;13.158;2022-09-01T09:56:23;94960.91;;;19.61;45.79
49915;BME280;35806;47.958;13.158;2022-09-01T09:58:52;94963.74;;;19.47;46.73
49915;BME280;35806;47.958;13.158;2022-09-01T10:01:29;94961.31;;;19.20;45.47
49915;BME280;35806;47.958;13.158;2022-09-01T10:03:59;94964.26;;;19.74;45.07
49915;BME280;35806;47.958;13.158;2022-09-01T10:06:33;94960.91;;;19.47;45.54
49915;BME280;35806;47.958;13.158;2022-09-01T10:09:04;94957.59;;;19.17;47.59
49915;BME280;35806;47.958;13.158;2022-09-01T10:11:36;94953.29;;;19.04;47.77
49915;BME280;35806;47.958;13.158;2022-09-01T10:14:06;94956.85;;;19.41;46.47
49915;BME280;35806;47.958;13.158;2022-09-01T10:16:37;94960.08;;;19.71;44.30
49915;BME280;35806;47.958;13.158;2022-09-01T10:19:11;94958.14;;;20.53;45.05
49915;BME280;35806;47.958;13.158;2022-09-01T10:21:41;94963.11;;;20.86;43.49
49915;BME280;35806;47.958;13.158;2022-09-01T10:24:18;94956.13;;;19.88;44.03
49915;BME280;35806;47.958;13.158;2022-09-01T10:26:48;94954.03;;;20.28;43.74
49915;BME280;35806;47.958;13.158;2022-09-01T10:29:20;94958.10;;;20.53;42.12
49915;BME280;35806;47.958;13.158;2022-09-01T10:31:54;94952.98;;;19.90;44.31
49915;BME280;35806;47.958;13.158;2022-09-01T10:34:23;94951.87;;;21.18;45.31
49915;BME280;35806;47.958;13.158;2022-09-01T10:36:50;94950.39;;;20.47;43.41
49915;BME280;35806;47.958;13.158;2022-09-01T10:39:18;94941.55;;;21.07;41.45
49915;BME280;35806;47.958;13.158;2022-09-01T10:41:50;94947.88;;;20.53;42.62
49915;BME280;35806;47.958;13.158;2022-09-01T10:44:20;94946.73;;;20.69;42.37
49915;BME280;35806;47.958;13.158;2022-09-01T10:46:49;94951.36;;;20.99;39.18
49915;BME280;35806;47.958;13.158;2022-09-01T10:49:21;94947.03;;;20.80;40.01
49915;BME280;35806;47.958;13.158;2022-09-01T10:52:59;94945.52;;;20.90;39.61
49915;BME280;35806;47.958;13.158;2022-09-01T10:56:38;94941.89;;;21.74;42.34
49915;BME280;35806;47.958;13.158;2022-09-01T10:59:21;94951.11;;;22.33;38.50
49915;BME280;35806;47.958;13.158;2022-09-01T11:02:23;94947.96;;;21.51;36.41
49915;BME280;35806;47.958;13.158;2022-09-01T11:05:22;94955.15;;;21.24;39.18
49915;BME280;35806;47.958;13.158;2022-09-01T11:07:49;94957.49;;;21.61;37.99
49915;BME280;35806;47.958;13.158;2022-09-01T11:10:32;94958.17;;;22.08;39.87
49915;BME280;35806;47.958;13.158;2022-09-01T11:13:29;94961.97;;;21.58;39.25
49915;BME280;35806;47.958;13.158;2022-09-01T11:16:25;94960.09;;;21.39;39.22
49915;BME280;35806;47.958;13.158;2022-09-01T11:18:53;94963.01;;;20.30;37.55
49915;BME280;35806;47.958;13.158;2022-09-01T11:21:28;94962.05;;;21.11;40.48
49915;BME280;35806;47.958;13.158;2022-09-01T11:24:46;94957.00;;;20.83;40.34
49915;BME280;35806;47.958;13.158;2022-09-01T11:27:55;94953.05;;;21.65;40.62
49915;BME280;35806;47.958;13.158;2022-09-01T11:30:30;94952.76;;;22.27;36.28
49915;BME280;35806;47.958;13.158;2022-09-01T11:33:10;94953.07;;;22.18;37.41
49915;BME280;35806;47.958;13.158;2022-09-01T11:35:39;94944.30;;;21.35;39.45
49915;BME280;35806;47.958;13.158;2022-09-01T11:38:08;94948.92;;;22.36;36.65
49915;BME280;35806;47.958;13.158;2022-09-01T11:40:38;94947.56;;;21.60;37.25
49915;BME280;35806;47.958;13.158;2022-09-01T11:43:07;94945.62;;;21.08;38.04
49915;BME280;35806;47.958;13.158;2022-09-01T11:45:42;94941.87;;;21.23;38.26
49915;BME280;35806;47.958;13.158;2022-09-01T11:48:12;94943.50;;;21.02;38.57
49915;BME280;35806;47.958;13.158;2022-09-01T11:50:41;94941.90;;;22.22;38.50
49915;BME280;35806;47.958;13.158;2022-09-01T11:53:13;94938.27;;;21.83;38.55
49915;BME280;35806;47.958;13.158;2022-09-01T11:55:42;94940.04;;;22.05;36.37
49915;BME280;35806;47.958;13.158;2022-09-01T11:58:12;94935.61;;;22.01;35.74
49915;BME280;35806;47.958;13.158;2022-09-01T12:00:41;94937.35;;;22.33;37.01
49915;BME280;35806;47.958;13.158;2022-09-01T12:03:21;94941.40;;;23.08;37.53
49915;BME280;35806;47.958;13.158;2022-09-01T12:05:52;94934.98;;;22.17;34.46
49915;BME280;35806;47.958;13.158;2022-09-01T12:08:20;94938.46;;;21.56;35.48
49915;BME280;35806;47.958;13.158;2022-09-01T12:10:47;94933.60;;;21.17;35.28
49915;BME280;35806;47.958;13.158;2022-09-01T12:13:19;94934.48;;;21.55;36.55
49915;BME280;35806;47.958;13.158;2022-09-01T12:15:53;94933.23;;;21.96;34.16
49915;BME280;35806;47.958;13.158;2022-09-01T12:18:22;94928.92;;;22.11;33.46
49915;BME280;35806;47.958;13.158;2022-09-01T12:20:51;94926.13;;;22.04;35.03
49915;BME280;35806;47.958;13.158;2022-09-01T12:23:24;94928.59;;;21.82;36.73
49915;BME280;35806;47.958;13.158;2022-09-01T12:25:53;94923.54;;;22.20;36.94
49915;BME280;35806;47.958;13.158;2022-09-01T12:28:22;94919.11;;;23.66;36.29
49915;BME280;35806;47.958;13.158;2022-09-01T12:30:50;94929.41;;;23.28;36.79
49915;BME280;35806;47.958;13.158;2022-09-01T12:33:19;94926.79;;;22.36;33.67
49915;BME280;35806;47.958;13.158;2022-09-01T12:35:47;94926.32;;;22.19;36.33
49915;BME280;35806;47.958;13.158;2022-09-01T12:38:21;94925.59;;;21.90;36.16
49915;BME280;35806;47.958;13.158;2022-09-01T12:40:50;94929.10;;;23.00;36.03
49915;BME280;35806;47.958;13.158;2022-09-01T12:43:35;94925.11;;;22.00;34.25
49915;BME280;35806;47.958;13.158;2022-09-01T12:46:03;94921.36;;;22.07;33.93
49915;BME280;35806;47.958;13.158;2022-09-01T12:48:31;94928.09;;;22.35;34.85
49915;BME280;35806;47.958;13.158;2022-09-01T12:51:01;94928.71;;;21.72;35.29
49915;BME280;35806;47.958;13.158;2022-09-01T12:53:31;94925.37;;;22.17;35.73
49915;BME280;35806;47.958;13.158;2022-09-01T12:56:04;94922.61;;;21.98;33.60
49915;BME280;35806;47.958;13.158;2022-09-01T12:58:31;94926.16;;;22.78;33.49
49915;BME280;35806;47.958;13.158;2022-09-01T13:01:02;94924.70;;;22.60;33.56
49915;BME280;35806;47.958;13.158;2022-09-01T13:03:30;94923.96;;;22.21;33.95
49915;BME280;35806;47.958;13.158;2022-09-01T13:06:00;94921.71;;;21.84;33.58
49915;BME280;35806;47.958;13.158;2022-09-01T13:08:29;94924.67;;;21.74;35.35
49915;BME280;35806;47.958;13.158;2022-09-01T13:11:02;94924.05;;;21.08;34.60
49915;BME280;35806;47.958;13.158;2022-09-01T13:13:30;94924.85;;;22.28;32.53
49915;BME280;35806;47.958;13.158;2022-09-01T13:15:58;94922.11;;;22.12;33.38
49915;BME280;35806;47.958;13.158;2022-09-01T13:18:26;94923.94;;;21.59;34.44
49915;BME280;35806;47.958;13.158;2022-09-01T13:20:55;94924.71;;;20.94;33.97
49915;BME280;35806;47.958;13.158;2022-09-01T13:23:23;94922.92;;;21.56;34.54